Time;durP1;ratioP1;P1;durP2;ratioP2;P2;SDS_P1;SDS_P2;PMS_P1;PMS_P2;Temp;Humidity;BMP_temperature;BMP_pressure;BME280_temperature;BME280_humidity;BME280_pressure;Samples;Min_cycle;Max_cycle;Signal;HPM_P1;HPM_P2
2023/03/23 00:03:21;;;;;;;42.60;28.83;;;;;;;;;;10460893;28;20403;-87
2023/03/23 00:08:22;;;;;;;42.63;29.58;;;;;;;;;;10456297;28;20832;-86
2023/03/23 00:13:25;;;;;;;45.42;30.35;;;;;;;;;;10463285;28;20398;-86
2023/03/23 00:18:28;;;;;;;42.55;29.88;;;;;;;;;;10446207;28;20410;-86
2023/03/23 00:23:31;;;;;;;40.63;29.35;;;;;;;;;;10451686;28;20489;-86
2023/03/23 00:28:33;;;;;;;42.20;29.45;;;;;;;;;;10459889;28;20413;-86
2023/03/23 00:33:40;;;;;;;41.60;29.30;;;;;;;;;;10447780;28;20404;-87
2023/03/23 00:38:43;;;;;;;41.08;29.35;;;;;;;;;;10458744;28;20454;-86
2023/03/23 00:43:45;;;;;;;42.97;28.77;;;;;;;;;;10470761;28;20945;-87
2023/03/23 00:48:50;;;;;;;39.07;28.27;;;;;;;;;;10448985;28;20821;-86
2023/03/23 00:53:52;;;;;;;43.47;28.90;;;;;;;;;;10467514;28;20408;-87
2023/03/23 00:58:54;;;;;;;41.67;28.77;;;;;;;;;;10469196;28;20498;-87
2023/03/23 01:04:00;;;;;;;42.53;28.00;;;;;;;;;;10454450;28;20454;-87
2023/03/23 01:09:03;;;;;;;37.50;26.87;;;;;;;;;;10455882;28;20454;-87
2023/03/23 01:14:06;;;;;;;40.60;28.27;;;;;;;;;;10466184;28;20402;-87
2023/03/23 01:19:09;;;;;;;39.60;26.43;;;;;;;;;;10451514;28;20872;-86
2023/03/23 01:24:11;;;;;;;38.17;26.13;;;;;;;;;;10439600;28;20980;-86
2023/03/23 01:29:13;;;;;;;38.05;25.77;;;;;;;;;;10436217;28;20425;-87
2023/03/23 01:34:16;;;;;;;36.30;24.95;;;;;;;;;;10411655;28;20415;-87
2023/03/23 01:39:18;;;;;;;34.80;24.83;;;;;;;;;;10420960;28;20474;-87
2023/03/23 01:44:57;;;;;;;35.15;23.45;;;;;;;;;;10433394;28;20420;-87
2023/03/23 01:50:01;;;;;;;35.10;24.02;;;;;;;;;;10410879;28;20915;-87
2023/03/23 01:55:04;;;;;;;31.67;23.07;;;;;;;;;;10417519;28;20405;-87
2023/03/23 02:00:14;;;;;;;33.40;22.52;;;;;;;;;;10419777;28;20433;-85
2023/03/23 02:05:24;;;;;;;32.47;22.47;;;;;;;;;;10410328;28;20405;-87
2023/03/23 02:10:26;;;;;;;30.85;22.30;;;;;;;;;;10412795;28;20421;-87
2023/03/23 02:15:38;;;;;;;31.67;22.95;;;;;;;;;;10429113;28;20476;-86
2023/03/23 02:21:02;;;;;;;32.88;23.30;;;;;;;;;;10409178;28;20438;-88
2023/03/23 02:26:20;;;;;;;32.77;22.90;;;;;;;;;;10423393;28;20410;-88
2023/03/23 02:31:44;;;;;;;29.90;21.92;;;;;;;;;;10419533;28;20424;-85
2023/03/23 02:36:52;;;;;;;33.92;22.48;;;;;;;;;;10418409;28;20470;-88
2023/03/23 02:41:57;;;;;;;31.20;21.83;;;;;;;;;;10442991;28;20416;-87
2023/03/23 02:47:01;;;;;;;28.60;20.47;;;;;;;;;;10425070;28;20779;-89
2023/03/23 02:52:12;;;;;;;30.00;22.03;;;;;;;;;;10433885;28;20423;-88
2023/03/23 02:57:13;;;;;;;32.53;23.13;;;;;;;;;;10439840;28;20405;-88
2023/03/23 03:02:18;;;;;;;32.38;23.42;;;;;;;;;;10414122;28;20939;-87
2023/03/23 03:08:01;;;;;;;33.50;22.98;;;;;;;;;;10434267;28;20789;-88
2023/03/23 03:13:12;;;;;;;35.47;23.95;;;;;;;;;;10313090;28;20429;-87
2023/03/23 03:18:19;;;;;;;34.45;25.05;;;;;;;;;;10400985;28;21169;-88
2023/03/23 03:23:24;;;;;;;33.65;24.60;;;;;;;;;;10429999;28;20412;-89
2023/03/23 03:28:27;;;;;;;34.63;25.35;;;;;;;;;;10439878;28;20413;-87
2023/03/23 03:33:31;;;;;;;34.03;24.35;;;;;;;;;;10427814;28;20422;-88
2023/03/23 03:38:42;;;;;;;34.35;24.80;;;;;;;;;;10431240;28;20405;-86
2023/03/23 03:43:44;;;;;;;36.00;24.42;;;;;;;;;;10427435;28;20456;-88
2023/03/23 03:48:46;;;;;;;38.03;26.45;;;;;;;;;;10426561;28;20403;-86
2023/03/23 03:53:50;;;;;;;34.87;24.93;;;;;;;;;;10436853;28;20440;-88
2023/03/23 03:58:52;;;;;;;37.50;26.17;;;;;;;;;;10432665;28;20922;-88
2023/03/23 04:03:53;;;;;;;33.70;25.57;;;;;;;;;;10425493;28;20969;-88
2023/03/23 04:08:58;;;;;;;38.35;25.65;;;;;;;;;;10434946;28;20893;-88
2023/03/23 04:14:00;;;;;;;38.07;25.03;;;;;;;;;;10428019;28;20413;-87
2023/03/23 04:19:03;;;;;;;36.35;26.15;;;;;;;;;;10424607;28;20497;-88
2023/03/23 04:24:08;;;;;;;36.90;26.03;;;;;;;;;;10436210;28;20486;-88
2023/03/23 04:29:10;;;;;;;39.13;25.92;;;;;;;;;;10423472;28;20414;-88
2023/03/23 04:34:13;;;;;;;43.17;25.92;;;;;;;;;;10424673;28;20427;-89
2023/03/23 04:39:16;;;;;;;39.87;26.57;;;;;;;;;;10439199;28;20988;-88
2023/03/23 04:44:21;;;;;;;39.13;25.83;;;;;;;;;;10424847;28;20441;-88
2023/03/23 04:49:23;;;;;;;40.50;27.38;;;;;;;;;;10427707;28;20492;-88
2023/03/23 04:54:28;;;;;;;40.57;27.07;;;;;;;;;;10435225;28;20499;-87
2023/03/23 04:59:31;;;;;;;37.08;25.80;;;;;;;;;;10422739;28;20811;-85
2023/03/23 05:04:33;;;;;;;37.78;23.98;;;;;;;;;;10426806;28;20404;-85
2023/03/23 05:09:36;;;;;;;38.30;25.00;;;;;;;;;;10434452;28;20416;-88
2023/03/23 05:14:41;;;;;;;38.17;24.30;;;;;;;;;;10422475;28;20424;-88
2023/03/23 05:19:47;;;;;;;35.40;24.45;;;;;;;;;;10419544;28;20410;-89
2023/03/23 05:24:52;;;;;;;39.40;26.13;;;;;;;;;;10439210;28;20405;-87
2023/03/23 05:29:54;;;;;;;39.80;25.80;;;;;;;;;;10415826;28;20450;-88
2023/03/23 05:34:56;;;;;;;39.20;25.75;;;;;;;;;;10427954;28;20427;-88
2023/03/23 05:40:04;;;;;;;38.53;25.90;;;;;;;;;;10439510;28;20403;-88
2023/03/23 05:45:08;;;;;;;40.28;26.38;;;;;;;;;;10418091;28;20493;-88
2023/03/23 05:50:12;;;;;;;42.85;27.25;;;;;;;;;;10429323;28;20439;-88
2023/03/23 05:55:15;;;;;;;41.20;26.37;;;;;;;;;;10418280;28;20407;-89
2023/03/23 06:00:22;;;;;;;42.10;28.38;;;;;;;;;;10415671;28;20425;-88
2023/03/23 06:05:25;;;;;;;43.92;28.08;;;;;;;;;;10422453;28;20408;-88
2023/03/23 06:10:30;;;;;;;44.58;28.90;;;;;;;;;;10418312;28;20421;-87
2023/03/23 06:15:32;;;;;;;45.35;29.00;;;;;;;;;;10413819;28;20413;-88
2023/03/23 06:20:35;;;;;;;45.17;29.75;;;;;;;;;;10414204;28;20493;-88
2023/03/23 06:25:40;;;;;;;48.20;30.85;;;;;;;;;;10432018;28;20499;-87
2023/03/23 06:30:42;;;;;;;49.28;30.25;;;;;;;;;;10406086;28;20432;-88
2023/03/23 06:35:44;;;;;;;50.15;29.98;;;;;;;;;;10405431;28;20417;-87
2023/03/23 06:40:48;;;;;;;50.08;31.20;;;;;;;;;;10402884;28;20955;-87
2023/03/23 06:45:50;;;;;;;50.60;31.38;;;;;;;;;;10398674;28;20546;-86
2023/03/23 06:50:51;;;;;;;55.03;32.10;;;;;;;;;;10393535;28;20939;-86
2023/03/23 06:55:55;;;;;;;54.28;32.38;;;;;;;;;;10398739;28;20405;-86
2023/03/23 07:00:58;;;;;;;54.72;32.47;;;;;;;;;;10406727;28;20408;-86
2023/03/23 07:06:00;;;;;;;50.43;33.17;;;;;;;;;;10413323;28;20433;-87
2023/03/23 07:11:03;;;;;;;48.20;31.80;;;;;;;;;;10403586;28;20422;-87
2023/03/23 07:16:07;;;;;;;53.78;32.72;;;;;;;;;;10383436;28;20488;-89
2023/03/23 07:21:09;;;;;;;54.30;33.45;;;;;;;;;;10411840;28;20406;-83
2023/03/23 07:26:13;;;;;;;49.93;32.93;;;;;;;;;;10402307;28;21551;-85
2023/03/23 07:31:15;;;;;;;51.45;32.55;;;;;;;;;;10417485;28;20429;-86
2023/03/23 07:36:17;;;;;;;51.30;32.53;;;;;;;;;;10437008;28;20414;-87
2023/03/23 07:41:20;;;;;;;50.00;32.80;;;;;;;;;;10433335;28;20405;-84
2023/03/23 07:46:22;;;;;;;50.17;31.58;;;;;;;;;;10417668;28;20411;-84
2023/03/23 07:51:25;;;;;;;48.83;31.27;;;;;;;;;;10419676;28;20437;-84
2023/03/23 07:56:28;;;;;;;49.35;30.63;;;;;;;;;;10407529;28;20416;-84
2023/03/23 08:01:30;;;;;;;48.58;30.98;;;;;;;;;;10414875;28;20418;-81
2023/03/23 08:06:34;;;;;;;47.53;30.77;;;;;;;;;;10424877;28;20412;-81
2023/03/23 08:11:39;;;;;;;47.95;29.80;;;;;;;;;;10403083;28;20432;-82
2023/03/23 08:16:41;;;;;;;44.73;29.80;;;;;;;;;;10424710;28;20893;-81
2023/03/23 08:21:44;;;;;;;45.37;27.07;;;;;;;;;;10433693;28;20411;-82
2023/03/23 08:26:48;;;;;;;44.25;29.10;;;;;;;;;;10416885;28;20405;-80
2023/03/23 08:31:51;;;;;;;47.33;30.27;;;;;;;;;;10425905;28;20830;-86
2023/03/23 08:36:53;;;;;;;45.33;28.10;;;;;;;;;;10420336;28;20404;-85
2023/03/23 08:41:58;;;;;;;43.40;28.27;;;;;;;;;;10409870;28;20402;-86
2023/03/23 08:47:02;;;;;;;41.03;26.98;;;;;;;;;;10419598;28;20493;-86
2023/03/23 08:52:05;;;;;;;48.13;29.27;;;;;;;;;;10426019;28;20465;-86
2023/03/23 08:57:09;;;;;;;46.30;29.13;;;;;;;;;;10420074;28;20414;-85
2023/03/23 09:02:12;;;;;;;42.33;25.83;;;;;;;;;;10415880;28;20411;-86
2023/03/23 09:07:15;;;;;;;44.80;26.65;;;;;;;;;;10433220;28;20416;-86
2023/03/23 09:12:18;;;;;;;42.75;27.80;;;;;;;;;;10417248;28;20425;-84
2023/03/23 09:17:20;;;;;;;41.78;28.10;;;;;;;;;;10427517;28;20739;-86
2023/03/23 09:22:23;;;;;;;44.42;28.25;;;;;;;;;;10437573;28;20399;-87
2023/03/23 09:27:27;;;;;;;42.93;26.70;;;;;;;;;;10425166;23;20428;-86
2023/03/23 09:32:29;;;;;;;39.95;26.73;;;;;;;;;;10416757;28;20511;-87
2023/03/23 09:37:31;;;;;;;44.03;26.50;;;;;;;;;;10407059;28;20417;-86
2023/03/23 09:42:45;;;;;;;37.90;24.88;;;;;;;;;;10407163;28;20440;-87
2023/03/23 09:47:58;;;;;;;37.60;24.70;;;;;;;;;;10411727;28;20409;-86
2023/03/23 09:53:03;;;;;;;36.72;23.50;;;;;;;;;;10409339;28;20435;-86
2023/03/23 09:58:12;;;;;;;33.23;22.60;;;;;;;;;;10418257;28;20428;-86
2023/03/23 10:03:17;;;;;;;29.88;20.35;;;;;;;;;;10419621;28;20492;-86
2023/03/23 10:08:21;;;;;;;27.80;17.83;;;;;;;;;;10427735;28;20415;-87
2023/03/23 10:13:36;;;;;;;25.43;14.50;;;;;;;;;;10390365;28;20976;-87
2023/03/23 10:18:42;;;;;;;13.90;9.15;;;;;;;;;;10415057;28;20872;-86
2023/03/23 10:23:55;;;;;;;20.67;15.45;;;;;;;;;;10409295;28;20421;-87
2023/03/23 10:29:02;;;;;;;19.88;14.23;;;;;;;;;;10431261;28;20424;-87
2023/03/23 10:34:11;;;;;;;37.67;14.80;;;;;;;;;;10409367;28;20433;-86
2023/03/23 10:39:18;;;;;;;25.40;13.82;;;;;;;;;;10412554;28;20463;-87
2023/03/23 10:44:25;;;;;;;32.40;12.50;;;;;;;;;;10420441;28;20397;-89
2023/03/23 10:49:32;;;;;;;20.67;13.20;;;;;;;;;;10442079;28;20410;-89
2023/03/23 10:54:39;;;;;;;17.17;13.37;;;;;;;;;;10431718;28;20549;-89
2023/03/23 10:59:42;;;;;;;17.23;12.73;;;;;;;;;;10417109;28;20911;-89
2023/03/23 11:04:48;;;;;;;16.98;12.13;;;;;;;;;;10414036;28;20412;-90
2023/03/23 11:09:55;;;;;;;20.50;13.48;;;;;;;;;;10419836;28;20429;-89
2023/03/23 11:15:23;;;;;;;17.70;13.20;;;;;;;;;;10418486;28;20429;-89
2023/03/23 11:20:28;;;;;;;16.93;12.80;;;;;;;;;;10398046;28;20474;-89
2023/03/23 11:25:30;;;;;;;14.25;11.20;;;;;;;;;;10417941;28;20422;-89
2023/03/23 11:30:33;;;;;;;18.87;13.03;;;;;;;;;;10424769;28;20744;-90
2023/03/23 11:35:35;;;;;;;18.00;13.27;;;;;;;;;;10412776;28;20496;-88
2023/03/23 11:40:47;;;;;;;15.73;12.82;;;;;;;;;;10423145;28;20401;-87
2023/03/23 11:45:59;;;;;;;18.25;13.70;;;;;;;;;;10420282;28;20398;-86
2023/03/23 11:51:03;;;;;;;17.05;14.25;;;;;;;;;;10411265;28;20422;-87
2023/03/23 11:56:13;;;;;;;18.73;13.50;;;;;;;;;;10419328;28;20409;-87
2023/03/23 12:01:28;;;;;;;17.23;12.73;;;;;;;;;;10412507;28;20481;-87
2023/03/23 12:06:39;;;;;;;17.08;13.30;;;;;;;;;;10406918;28;20461;-89
2023/03/23 12:11:52;;;;;;;21.75;12.45;;;;;;;;;;10423004;28;20421;-89
2023/03/23 12:17:09;;;;;;;19.20;13.67;;;;;;;;;;10412961;28;20852;-87
2023/03/23 12:22:25;;;;;;;20.33;14.98;;;;;;;;;;10401036;28;20981;-87
2023/03/23 12:27:34;;;;;;;21.17;15.20;;;;;;;;;;10424977;28;20411;-88
2023/03/23 12:32:51;;;;;;;21.30;14.90;;;;;;;;;;10431900;28;20845;-86
2023/03/23 12:38:05;;;;;;;20.08;14.93;;;;;;;;;;10435532;28;20403;-86
2023/03/23 12:43:14;;;;;;;18.43;12.97;;;;;;;;;;10434166;28;20403;-87
2023/03/23 12:48:24;;;;;;;20.10;14.07;;;;;;;;;;10392910;28;20935;-86
2023/03/23 12:53:31;;;;;;;19.35;13.13;;;;;;;;;;10427572;28;20429;-87
2023/03/23 12:58:40;;;;;;;18.13;12.98;;;;;;;;;;10423048;28;20418;-87
2023/03/23 13:03:47;;;;;;;26.88;16.63;;;;;;;;;;10447732;28;20887;-86
2023/03/23 13:08:55;;;;;;;25.23;17.67;;;;;;;;;;10453336;28;21167;-87
2023/03/23 13:14:04;;;;;;;23.92;17.02;;;;;;;;;;10451602;28;20440;-87
2023/03/23 13:19:14;;;;;;;25.08;17.30;;;;;;;;;;10451005;28;20808;-85
2023/03/23 13:24:22;;;;;;;27.45;19.80;;;;;;;;;;10438134;28;20822;-84
2023/03/23 13:29:27;;;;;;;28.98;20.80;;;;;;;;;;10458531;28;20495;-88
2023/03/23 13:34:32;;;;;;;31.60;21.87;;;;;;;;;;10471970;28;20451;-88
2023/03/23 13:39:37;;;;;;;31.38;22.35;;;;;;;;;;10456574;28;20464;-88
2023/03/23 13:44:46;;;;;;;31.13;21.50;;;;;;;;;;10456314;28;20442;-89
2023/03/23 13:49:52;;;;;;;32.17;22.73;;;;;;;;;;10455238;28;20415;-89
2023/03/23 13:55:23;;;;;;;32.83;22.05;;;;;;;;;;10481187;28;20410;-89
2023/03/23 14:00:48;;;;;;;31.40;21.63;;;;;;;;;;10482571;28;20429;-88
2023/03/23 14:05:52;;;;;;;29.57;21.10;;;;;;;;;;10467411;28;20414;-88
2023/03/23 14:11:02;;;;;;;34.00;22.40;;;;;;;;;;10470558;28;20398;-88
2023/03/23 14:16:06;;;;;;;31.52;23.00;;;;;;;;;;10457130;28;20405;-86
2023/03/23 14:21:16;;;;;;;32.37;22.40;;;;;;;;;;10437462;28;20473;-86
2023/03/23 14:26:21;;;;;;;34.40;23.17;;;;;;;;;;10431574;28;20398;-86
2023/03/23 14:31:25;;;;;;;34.50;24.23;;;;;;;;;;10409363;28;20437;-86
2023/03/23 14:36:30;;;;;;;34.22;24.83;;;;;;;;;;10391719;28;20505;-85
2023/03/23 14:41:32;;;;;;;34.55;24.77;;;;;;;;;;10408610;28;20888;-86
2023/03/23 14:46:34;;;;;;;33.10;24.13;;;;;;;;;;10405038;28;20441;-84
2023/03/23 14:51:37;;;;;;;36.15;25.10;;;;;;;;;;10380975;28;20437;-84
2023/03/23 14:56:43;;;;;;;33.35;24.10;;;;;;;;;;10400166;28;20449;-84
2023/03/23 15:01:48;;;;;;;34.28;24.17;;;;;;;;;;10407142;28;20604;-84
2023/03/23 15:06:56;;;;;;;31.20;23.07;;;;;;;;;;10415295;28;20452;-84
2023/03/23 15:12:01;;;;;;;36.78;24.63;;;;;;;;;;10411495;28;20910;-86
2023/03/23 15:17:03;;;;;;;34.07;24.47;;;;;;;;;;10403567;28;20491;-85
2023/03/23 15:22:13;;;;;;;33.90;24.35;;;;;;;;;;10415850;28;20494;-86
2023/03/23 15:27:18;;;;;;;32.60;23.00;;;;;;;;;;10388023;28;20968;-86
2023/03/23 15:32:28;;;;;;;32.27;23.87;;;;;;;;;;10423523;28;20426;-86
2023/03/23 15:37:33;;;;;;;33.13;23.53;;;;;;;;;;10432570;28;20568;-85
2023/03/23 15:42:36;;;;;;;34.40;24.07;;;;;;;;;;10425345;28;20436;-86
2023/03/23 15:47:44;;;;;;;30.97;24.00;;;;;;;;;;10438602;28;20409;-85
2023/03/23 15:52:51;;;;;;;28.85;20.48;;;;;;;;;;10456278;28;20531;-86
2023/03/23 15:57:53;;;;;;;22.60;17.10;;;;;;;;;;10468045;28;20499;-85
2023/03/23 16:02:58;;;;;;;26.13;16.75;;;;;;;;;;10455498;28;20411;-85
2023/03/23 16:08:01;;;;;;;20.27;14.57;;;;;;;;;;10457676;28;20424;-84
2023/03/23 16:13:05;;;;;;;19.50;14.00;;;;;;;;;;10447743;28;20477;-84
2023/03/23 16:18:07;;;;;;;18.17;13.63;;;;;;;;;;10434955;28;20867;-84
2023/03/23 16:23:10;;;;;;;22.93;14.47;;;;;;;;;;10454639;28;20427;-84
2023/03/23 16:28:14;;;;;;;20.47;14.37;;;;;;;;;;10460227;28;20411;-85
2023/03/23 16:33:16;;;;;;;17.75;12.63;;;;;;;;;;10434744;28;21040;-83
2023/03/23 16:38:19;;;;;;;16.50;12.25;;;;;;;;;;10412412;28;20415;-83
2023/03/23 16:43:21;;;;;;;19.80;12.20;;;;;;;;;;10415323;28;20515;-84
2023/03/23 16:48:25;;;;;;;19.10;13.20;;;;;;;;;;10408734;28;20462;-81
2023/03/23 16:53:29;;;;;;;17.20;12.45;;;;;;;;;;10417915;28;21026;-84
2023/03/23 16:58:31;;;;;;;18.50;12.38;;;;;;;;;;10416070;28;20782;-84
2023/03/23 17:03:33;;;;;;;17.95;12.77;;;;;;;;;;10434206;28;20430;-85
2023/03/23 17:08:37;;;;;;;18.67;13.52;;;;;;;;;;10443655;28;20412;-84
2023/03/23 17:13:39;;;;;;;18.05;13.57;;;;;;;;;;10449429;28;20454;-85
2023/03/23 17:18:41;;;;;;;18.75;13.20;;;;;;;;;;10449783;28;20414;-84
2023/03/23 17:23:44;;;;;;;16.60;13.33;;;;;;;;;;10443475;28;20754;-84
2023/03/23 17:28:46;;;;;;;20.45;14.55;;;;;;;;;;10434353;28;20413;-84
2023/03/23 17:33:48;;;;;;;24.77;15.75;;;;;;;;;;10399794;28;20421;-84
2023/03/23 17:38:51;;;;;;;20.80;16.03;;;;;;;;;;10411421;28;20411;-84
2023/03/23 17:43:53;;;;;;;21.33;15.52;;;;;;;;;;10402030;28;20435;-84
2023/03/23 17:48:55;;;;;;;23.27;16.45;;;;;;;;;;10406999;28;20847;-85
2023/03/23 17:53:58;;;;;;;24.10;17.02;;;;;;;;;;10400289;28;20453;-85
2023/03/23 17:59:00;;;;;;;24.20;17.30;;;;;;;;;;10401037;28;20412;-84
2023/03/23 18:04:03;;;;;;;23.38;18.38;;;;;;;;;;10405203;28;20409;-80
2023/03/23 18:09:06;;;;;;;24.87;19.07;;;;;;;;;;10406245;28;20409;-84
2023/03/23 18:14:09;;;;;;;23.77;18.90;;;;;;;;;;10398020;28;20429;-83
2023/03/23 18:19:10;;;;;;;26.15;19.55;;;;;;;;;;10398515;28;20415;-82
2023/03/23 18:24:14;;;;;;;30.58;22.95;;;;;;;;;;10390340;28;20416;-83
2023/03/23 18:29:16;;;;;;;31.98;23.48;;;;;;;;;;10422322;28;20433;-82
2023/03/23 18:34:18;;;;;;;34.83;23.55;;;;;;;;;;10461619;28;20421;-82
2023/03/23 18:39:21;;;;;;;32.87;24.23;;;;;;;;;;10459456;28;20482;-82
2023/03/23 18:44:23;;;;;;;35.85;26.02;;;;;;;;;;10454536;28;20403;-82
2023/03/23 18:49:25;;;;;;;34.58;25.65;;;;;;;;;;10454300;28;20959;-83
2023/03/23 18:54:28;;;;;;;35.43;24.07;;;;;;;;;;10457479;28;20431;-84
2023/03/23 18:59:32;;;;;;;30.75;23.73;;;;;;;;;;10452438;28;20414;-83
2023/03/23 19:04:35;;;;;;;32.30;24.30;;;;;;;;;;10450012;28;20786;-83
2023/03/23 19:09:39;;;;;;;32.65;24.80;;;;;;;;;;10451559;28;20513;-83
2023/03/23 19:14:41;;;;;;;35.97;25.60;;;;;;;;;;10450021;28;20430;-83
2023/03/23 19:19:44;;;;;;;33.90;24.90;;;;;;;;;;10446952;28;20865;-83
2023/03/23 19:24:47;;;;;;;36.47;26.33;;;;;;;;;;10456719;28;20497;-83
2023/03/23 19:29:49;;;;;;;35.97;26.50;;;;;;;;;;10431143;28;20551;-84
2023/03/23 19:34:51;;;;;;;35.93;27.50;;;;;;;;;;10404077;28;20802;-82
2023/03/23 19:39:54;;;;;;;40.58;28.63;;;;;;;;;;10395864;28;20441;-83
2023/03/23 19:44:56;;;;;;;39.13;27.45;;;;;;;;;;10400859;28;20449;-84
2023/03/23 19:49:59;;;;;;;42.60;29.35;;;;;;;;;;10394001;28;20423;-83
2023/03/23 19:55:03;;;;;;;40.57;29.63;;;;;;;;;;10396199;28;20438;-83
2023/03/23 20:00:06;;;;;;;44.65;31.38;;;;;;;;;;10387253;28;20423;-83
2023/03/23 20:05:09;;;;;;;41.63;29.63;;;;;;;;;;10375851;28;20800;-84
2023/03/23 20:10:12;;;;;;;45.15;31.58;;;;;;;;;;10386744;28;20419;-82
2023/03/23 20:15:14;;;;;;;44.05;31.92;;;;;;;;;;10369836;28;20490;-83
2023/03/23 20:20:16;;;;;;;52.70;34.00;;;;;;;;;;10371448;28;20426;-83
2023/03/23 20:25:20;;;;;;;45.88;32.20;;;;;;;;;;10389019;28;20405;-83
2023/03/23 20:30:22;;;;;;;43.40;30.90;;;;;;;;;;10413643;28;20411;-83
2023/03/23 20:35:24;;;;;;;45.28;32.03;;;;;;;;;;10448877;28;20435;-83
2023/03/23 20:40:28;;;;;;;46.40;33.05;;;;;;;;;;10448526;28;20412;-83
2023/03/23 20:45:31;;;;;;;48.80;32.85;;;;;;;;;;10447808;28;20546;-82
2023/03/23 20:50:32;;;;;;;48.65;33.22;;;;;;;;;;10448802;28;20435;-84
2023/03/23 20:55:36;;;;;;;48.47;33.77;;;;;;;;;;10451925;28;20490;-84
2023/03/23 21:00:40;;;;;;;52.00;34.85;;;;;;;;;;10456804;28;20422;-84
2023/03/23 21:05:43;;;;;;;49.78;35.08;;;;;;;;;;10453725;28;20408;-83
2023/03/23 21:10:46;;;;;;;54.75;37.10;;;;;;;;;;10450379;28;20499;-83
2023/03/23 21:15:49;;;;;;;56.47;37.03;;;;;;;;;;10454299;28;20435;-83
2023/03/23 21:20:50;;;;;;;55.38;36.80;;;;;;;;;;10454568;28;20416;-83
2023/03/23 21:25:54;;;;;;;56.97;37.53;;;;;;;;;;10442892;28;21072;-83
2023/03/23 21:31:00;;;;;;;55.35;37.65;;;;;;;;;;10411118;28;20435;-83
2023/03/23 21:36:01;;;;;;;53.72;36.92;;;;;;;;;;10413788;28;20455;-82
2023/03/23 21:41:09;;;;;;;54.13;37.45;;;;;;;;;;10412750;28;20505;-82
2023/03/23 21:46:16;;;;;;;56.77;37.70;;;;;;;;;;10408627;28;20425;-82
2023/03/23 21:51:22;;;;;;;58.90;38.77;;;;;;;;;;10412021;28;20416;-81
2023/03/23 21:56:27;;;;;;;62.20;41.37;;;;;;;;;;10406301;28;20905;-82
2023/03/23 22:01:29;;;;;;;61.70;40.28;;;;;;;;;;10406845;28;20507;-81
2023/03/23 22:06:33;;;;;;;60.77;40.50;;;;;;;;;;10410243;28;20413;-81
2023/03/23 22:11:38;;;;;;;60.55;41.13;;;;;;;;;;10403662;28;20471;-82
2023/03/23 22:16:40;;;;;;;61.57;41.00;;;;;;;;;;10412016;28;20462;-82
2023/03/23 22:21:42;;;;;;;62.17;40.40;;;;;;;;;;10401959;28;20425;-83
2023/03/23 22:26:46;;;;;;;59.73;40.50;;;;;;;;;;10401175;28;20505;-83
2023/03/23 22:31:48;;;;;;;63.25;41.83;;;;;;;;;;10396408;28;20417;-83
2023/03/23 22:36:50;;;;;;;59.57;38.90;;;;;;;;;;10400639;28;20426;-83
2023/03/23 22:41:53;;;;;;;56.40;38.23;;;;;;;;;;10401681;28;20811;-84
2023/03/23 22:46:55;;;;;;;55.27;38.47;;;;;;;;;;10390406;28;21066;-83
2023/03/23 22:51:57;;;;;;;60.20;39.17;;;;;;;;;;10402973;28;20489;-83
2023/03/23 22:57:01;;;;;;;62.85;39.78;;;;;;;;;;10403967;28;20518;-84
2023/03/23 23:02:03;;;;;;;57.80;38.22;;;;;;;;;;10399791;28;20411;-83
2023/03/23 23:07:05;;;;;;;59.13;38.70;;;;;;;;;;10432234;28;20783;-83
2023/03/23 23:12:08;;;;;;;59.28;39.28;;;;;;;;;;10427612;28;20409;-83
2023/03/23 23:17:11;;;;;;;57.07;38.53;;;;;;;;;;10420886;28;20416;-84
2023/03/23 23:22:13;;;;;;;58.95;37.92;;;;;;;;;;10431186;28;20486;-83
2023/03/23 23:27:17;;;;;;;57.58;38.38;;;;;;;;;;10431284;28;20497;-83
2023/03/23 23:32:19;;;;;;;57.83;37.97;;;;;;;;;;10424941;28;20437;-83
2023/03/23 23:37:22;;;;;;;58.08;38.90;;;;;;;;;;10435427;28;20436;-83
2023/03/23 23:42:25;;;;;;;57.25;38.65;;;;;;;;;;10435864;28;20885;-83
2023/03/23 23:47:27;;;;;;;56.73;37.93;;;;;;;;;;10421405;28;20495;-83
2023/03/23 23:52:29;;;;;;;56.47;38.08;;;;;;;;;;10433093;28;20487;-84
2023/03/23 23:57:32;;;;;;;55.43;36.57;;;;;;;;;;10427018;28;20912;-84
